Cleveland, OH

4:27 AM EDT on March 24, 2017 (GMT -0400)
LeanDog | | Change Station

Elev 574 ft 41.51 °N, 81.69 °W | Updated 52 seconds ago

Heavy Rain
Heavy Rain
43.2 °F
Feels Like 38 °F
N
10.0
Wind Variable Wind from SSW
Gusts 18.0 mph

Today
High -- | Low -- °F
--% Chance of Precip.
Yesterday
High -- | Low -- °F
Precip. -- in
Pressure 30.14 in
Visibility 5.0 miles
Clouds Few 3500 ft
Mostly Cloudy 6000 ft
Overcast 7500 ft
Windchill 38 °F
Dew Point 38 °F
Humidity 82%
Rainfall 0.27 in
Snow Depth Not available.
7:22 AM 7:43 PM
Waning Crescent, 17% visible
METAR KBKL 240753Z 16018G25KT 5SM +RA FEW035 BKN060 OVC075 04/01 A3013 RMK AO2 SLP206 P0012 T00440006
Pressure 30.14 in
Visibility 5.0 miles
Clouds Few 3500 ft
Mostly Cloudy 6000 ft
Overcast 7500 ft
Windchill 38 °F
Dew Point 38 °F
Humidity 82%
Rainfall 0.27 in
Snow Depth Not available.
7:22 AM 7:43 PM
Waning Crescent, 17% visible
METAR KBKL 240753Z 16018G25KT 5SM +RA FEW035 BKN060 OVC075 04/01 A3013 RMK AO2 SLP206 P0012 T00440006

Get Severe Weather Alerts

Thanks for signing up!

Be on the lookout for a verification email in your inbox.

You'll start receiving the daily forecast at 8 AM.

×

10-Day Weather Forecast

Almanac

Astronomy

Mar. 24, 2017 Rise Set
Actual Time
Civil Twilight
Nautical Twilight
Astronomical Twilight
Moon
Length of Visible Light
Length of Day
Tomorrow will be .
, % of the Moon is Illuminated

Today's Extremes

State Highs State Lows

Community

WunderPhotos

Upload Photos

1,962,540 photos uploaded!

WunderBlog® & News

Nearby

Air Quality

  Air Quality AQ Index Pollutant
Not available.

Snow Depth

Station Depth Elevation

Earthquake Activity

City Distance Mag. Time & Date
Minimum magnitude displayed is 2.5.

Earthquake Activity

City Distance Mag. Time & Date
Minimum magnitude displayed is 2.5.

Coastal Water Temperatures

Place Temperature

Stations

Nearby Weather Stations

Station Location Temp. Windchill Dew Point Humidity Wind Precip. Elev Updated Type
                   

Watches & Warnings

There are currently no watches in effect.